sensor_id;sensor_type;location;lat;lon;timestamp;P1;durP1;ratioP1;P2;durP2;ratioP2
15699;SDS011;7950;42.744;23.174;2023-07-16T00:00:38;11.47;;;10.37;;
15699;SDS011;7950;42.744;23.174;2023-07-16T00:03:08;13.80;;;9.77;;
15699;SDS011;7950;42.744;23.174;2023-07-16T00:05:36;13.07;;;10.87;;
15699;SDS011;7950;42.744;23.174;2023-07-16T00:08:05;12.47;;;10.27;;
15699;SDS011;7950;42.744;23.174;2023-07-16T00:10:34;11.27;;;9.90;;
15699;SDS011;7950;42.744;23.174;2023-07-16T00:13:04;12.50;;;11.23;;
15699;SDS011;7950;42.744;23.174;2023-07-16T00:15:32;11.90;;;10.70;;
15699;SDS011;7950;42.744;23.174;2023-07-16T00:18:01;11.63;;;10.53;;
15699;SDS011;7950;42.744;23.174;2023-07-16T00:20:31;11.70;;;10.53;;
15699;SDS011;7950;42.744;23.174;2023-07-16T00:23:00;14.67;;;11.63;;
15699;SDS011;7950;42.744;23.174;2023-07-16T00:25:28;13.03;;;11.73;;
15699;SDS011;7950;42.744;23.174;2023-07-16T00:27:57;14.73;;;11.43;;
15699;SDS011;7950;42.744;23.174;2023-07-16T00:30:25;12.20;;;10.90;;
15699;SDS011;7950;42.744;23.174;2023-07-16T00:32:54;12.20;;;10.90;;
15699;SDS011;7950;42.744;23.174;2023-07-16T00:35:23;11.90;;;10.70;;
15699;SDS011;7950;42.744;23.174;2023-07-16T00:37:52;12.23;;;10.97;;
15699;SDS011;7950;42.744;23.174;2023-07-16T00:40:21;12.37;;;10.77;;
15699;SDS011;7950;42.744;23.174;2023-07-16T00:42:50;12.30;;;11.10;;
15699;SDS011;7950;42.744;23.174;2023-07-16T00:45:18;12.30;;;11.10;;
15699;SDS011;7950;42.744;23.174;2023-07-16T00:47:47;12.57;;;11.33;;
15699;SDS011;7950;42.744;23.174;2023-07-16T00:50:15;13.83;;;11.47;;
15699;SDS011;7950;42.744;23.174;2023-07-16T00:52:44;12.33;;;11.03;;
15699;SDS011;7950;42.744;23.174;2023-07-16T00:55:14;12.87;;;11.67;;
15699;SDS011;7950;42.744;23.174;2023-07-16T00:57:43;14.00;;;11.50;;
15699;SDS011;7950;42.744;23.174;2023-07-16T01:00:14;13.40;;;12.00;;
15699;SDS011;7950;42.744;23.174;2023-07-16T01:02:43;13.10;;;11.57;;
15699;SDS011;7950;42.744;23.174;2023-07-16T01:05:11;14.90;;;11.10;;
15699;SDS011;7950;42.744;23.174;2023-07-16T01:07:40;13.40;;;12.07;;
15699;SDS011;7950;42.744;23.174;2023-07-16T01:10:22;12.63;;;11.43;;
15699;SDS011;7950;42.744;23.174;2023-07-16T01:12:53;12.70;;;11.40;;
15699;SDS011;7950;42.744;23.174;2023-07-16T01:15:24;12.70;;;11.50;;
15699;SDS011;7950;42.744;23.174;2023-07-16T01:17:53;12.80;;;11.00;;
15699;SDS011;7950;42.744;23.174;2023-07-16T01:20:21;11.87;;;10.73;;
15699;SDS011;7950;42.744;23.174;2023-07-16T01:23:00;13.07;;;10.90;;
15699;SDS011;7950;42.744;23.174;2023-07-16T01:26:05;13.07;;;11.73;;
15699;SDS011;7950;42.744;23.174;2023-07-16T01:29:03;12.77;;;11.23;;
15699;SDS011;7950;42.744;23.174;2023-07-16T01:31:52;13.90;;;12.50;;
15699;SDS011;7950;42.744;23.174;2023-07-16T01:34:22;14.20;;;11.83;;
15699;SDS011;7950;42.744;23.174;2023-07-16T01:36:55;17.23;;;12.57;;
15699;SDS011;7950;42.744;23.174;2023-07-16T01:39:23;13.07;;;11.77;;
15699;SDS011;7950;42.744;23.174;2023-07-16T01:41:52;14.30;;;12.77;;
15699;SDS011;7950;42.744;23.174;2023-07-16T01:44:22;13.77;;;12.50;;
15699;SDS011;7950;42.744;23.174;2023-07-16T01:46:53;12.87;;;11.57;;
15699;SDS011;7950;42.744;23.174;2023-07-16T01:49:33;13.60;;;12.10;;
15699;SDS011;7950;42.744;23.174;2023-07-16T01:52:03;13.90;;;12.13;;
15699;SDS011;7950;42.744;23.174;2023-07-16T01:54:34;13.80;;;11.60;;
15699;SDS011;7950;42.744;23.174;2023-07-16T01:57:02;13.23;;;11.53;;
15699;SDS011;7950;42.744;23.174;2023-07-16T01:59:33;13.30;;;11.60;;
15699;SDS011;7950;42.744;23.174;2023-07-16T02:02:02;13.90;;;12.53;;
15699;SDS011;7950;42.744;23.174;2023-07-16T02:04:31;13.13;;;11.63;;
15699;SDS011;7950;42.744;23.174;2023-07-16T02:06:59;14.00;;;12.60;;
15699;SDS011;7950;42.744;23.174;2023-07-16T02:09:28;12.27;;;10.97;;
15699;SDS011;7950;42.744;23.174;2023-07-16T02:11:57;13.50;;;11.20;;
15699;SDS011;7950;42.744;23.174;2023-07-16T02:14:26;12.93;;;11.63;;
15699;SDS011;7950;42.744;23.174;2023-07-16T02:16:55;12.07;;;10.87;;
15699;SDS011;7950;42.744;23.174;2023-07-16T02:19:24;14.07;;;11.77;;
15699;SDS011;7950;42.744;23.174;2023-07-16T02:21:53;13.07;;;11.50;;
15699;SDS011;7950;42.744;23.174;2023-07-16T02:24:22;13.17;;;11.60;;
15699;SDS011;7950;42.744;23.174;2023-07-16T02:26:50;12.33;;;11.03;;
15699;SDS011;7950;42.744;23.174;2023-07-16T02:29:19;12.27;;;11.10;;
15699;SDS011;7950;42.744;23.174;2023-07-16T02:31:47;12.30;;;11.03;;
15699;SDS011;7950;42.744;23.174;2023-07-16T02:34:17;12.37;;;11.10;;
15699;SDS011;7950;42.744;23.174;2023-07-16T02:36:46;12.93;;;11.60;;
15699;SDS011;7950;42.744;23.174;2023-07-16T02:39:14;12.50;;;11.20;;
15699;SDS011;7950;42.744;23.174;2023-07-16T02:41:43;11.77;;;10.57;;
15699;SDS011;7950;42.744;23.174;2023-07-16T02:44:11;12.17;;;10.93;;
15699;SDS011;7950;42.744;23.174;2023-07-16T02:46:40;14.97;;;10.67;;
15699;SDS011;7950;42.744;23.174;2023-07-16T02:49:10;14.53;;;11.70;;
15699;SDS011;7950;42.744;23.174;2023-07-16T02:51:40;12.20;;;11.03;;
15699;SDS011;7950;42.744;23.174;2023-07-16T02:54:09;12.40;;;11.20;;
15699;SDS011;7950;42.744;23.174;2023-07-16T02:56:37;14.60;;;12.07;;
15699;SDS011;7950;42.744;23.174;2023-07-16T02:59:06;12.70;;;11.40;;
15699;SDS011;7950;42.744;23.174;2023-07-16T03:01:34;14.10;;;11.10;;
15699;SDS011;7950;42.744;23.174;2023-07-16T03:04:03;11.30;;;10.10;;
15699;SDS011;7950;42.744;23.174;2023-07-16T03:06:32;11.00;;;10.00;;
15699;SDS011;7950;42.744;23.174;2023-07-16T03:09:01;12.50;;;10.47;;
15699;SDS011;7950;42.744;23.174;2023-07-16T03:11:30;12.07;;;10.63;;
15699;SDS011;7950;42.744;23.174;2023-07-16T03:13:59;11.57;;;10.37;;
15699;SDS011;7950;42.744;23.174;2023-07-16T03:16:28;14.33;;;11.83;;
15699;SDS011;7950;42.744;23.174;2023-07-16T03:18:56;12.70;;;10.67;;
15699;SDS011;7950;42.744;23.174;2023-07-16T03:21:28;12.80;;;11.13;;
15699;SDS011;7950;42.744;23.174;2023-07-16T03:23:57;16.60;;;10.40;;
15699;SDS011;7950;42.744;23.174;2023-07-16T03:26:27;14.53;;;11.30;;
15699;SDS011;7950;42.744;23.174;2023-07-16T03:28:55;11.63;;;10.47;;
15699;SDS011;7950;42.744;23.174;2023-07-16T03:31:24;15.83;;;11.20;;
15699;SDS011;7950;42.744;23.174;2023-07-16T03:33:53;17.47;;;11.43;;
15699;SDS011;7950;42.744;23.174;2023-07-16T03:36:22;12.70;;;10.73;;
15699;SDS011;7950;42.744;23.174;2023-07-16T03:38:50;19.47;;;10.63;;
15699;SDS011;7950;42.744;23.174;2023-07-16T03:41:19;11.60;;;10.40;;
15699;SDS011;7950;42.744;23.174;2023-07-16T03:43:49;10.93;;;9.63;;
15699;SDS011;7950;42.744;23.174;2023-07-16T03:46:17;14.23;;;10.73;;
15699;SDS011;7950;42.744;23.174;2023-07-16T03:48:46;12.23;;;10.33;;
15699;SDS011;7950;42.744;23.174;2023-07-16T03:51:14;11.97;;;10.67;;
15699;SDS011;7950;42.744;23.174;2023-07-16T03:53:44;13.73;;;10.30;;
15699;SDS011;7950;42.744;23.174;2023-07-16T03:56:13;11.20;;;10.07;;
15699;SDS011;7950;42.744;23.174;2023-07-16T03:58:41;11.23;;;10.00;;
15699;SDS011;7950;42.744;23.174;2023-07-16T04:01:12;10.77;;;9.67;;
15699;SDS011;7950;42.744;23.174;2023-07-16T04:03:40;11.17;;;10.07;;
15699;SDS011;7950;42.744;23.174;2023-07-16T04:06:09;13.63;;;9.93;;
15699;SDS011;7950;42.744;23.174;2023-07-16T04:08:40;12.07;;;10.00;;
15699;SDS011;7950;42.744;23.174;2023-07-16T04:11:08;12.20;;;10.00;;
15699;SDS011;7950;42.744;23.174;2023-07-16T04:13:37;9.83;;;8.93;;
15699;SDS011;7950;42.744;23.174;2023-07-16T04:16:06;13.30;;;9.63;;
15699;SDS011;7950;42.744;23.174;2023-07-16T04:18:35;11.93;;;9.57;;
15699;SDS011;7950;42.744;23.174;2023-07-16T04:21:04;13.00;;;10.03;;
15699;SDS011;7950;42.744;23.174;2023-07-16T04:23:33;11.17;;;9.97;;
15699;SDS011;7950;42.744;23.174;2023-07-16T04:26:01;10.83;;;9.87;;
15699;SDS011;7950;42.744;23.174;2023-07-16T04:28:30;11.13;;;9.90;;
15699;SDS011;7950;42.744;23.174;2023-07-16T04:30:58;12.50;;;9.57;;
15699;SDS011;7950;42.744;23.174;2023-07-16T04:33:27;10.43;;;9.17;;
15699;SDS011;7950;42.744;23.174;2023-07-16T04:35:57;9.80;;;8.90;;
15699;SDS011;7950;42.744;23.174;2023-07-16T04:38:25;12.87;;;9.77;;
15699;SDS011;7950;42.744;23.174;2023-07-16T04:40:54;10.60;;;9.50;;
15699;SDS011;7950;42.744;23.174;2023-07-16T04:43:22;12.37;;;9.87;;
15699;SDS011;7950;42.744;23.174;2023-07-16T04:45:51;13.23;;;10.13;;
15699;SDS011;7950;42.744;23.174;2023-07-16T04:48:19;10.63;;;9.53;;
15699;SDS011;7950;42.744;23.174;2023-07-16T04:50:48;10.17;;;9.27;;
15699;SDS011;7950;42.744;23.174;2023-07-16T04:53:19;10.93;;;9.80;;
15699;SDS011;7950;42.744;23.174;2023-07-16T04:55:50;9.43;;;8.43;;
15699;SDS011;7950;42.744;23.174;2023-07-16T04:58:19;9.77;;;8.70;;
15699;SDS011;7950;42.744;23.174;2023-07-16T05:00:47;9.60;;;7.83;;
15699;SDS011;7950;42.744;23.174;2023-07-16T05:03:16;8.63;;;7.73;;
15699;SDS011;7950;42.744;23.174;2023-07-16T05:05:44;9.53;;;8.27;;
15699;SDS011;7950;42.744;23.174;2023-07-16T05:08:13;10.60;;;8.13;;
15699;SDS011;7950;42.744;23.174;2023-07-16T05:10:43;10.27;;;7.73;;
15699;SDS011;7950;42.744;23.174;2023-07-16T05:13:12;9.40;;;7.10;;
15699;SDS011;7950;42.744;23.174;2023-07-16T05:15:43;9.10;;;7.07;;
15699;SDS011;7950;42.744;23.174;2023-07-16T05:18:12;8.37;;;7.17;;
15699;SDS011;7950;42.744;23.174;2023-07-16T05:20:40;11.17;;;8.13;;
15699;SDS011;7950;42.744;23.174;2023-07-16T05:23:09;8.23;;;7.43;;
15699;SDS011;7950;42.744;23.174;2023-07-16T05:25:38;15.50;;;8.37;;
15699;SDS011;7950;42.744;23.174;2023-07-16T05:28:08;13.30;;;7.20;;
15699;SDS011;7950;42.744;23.174;2023-07-16T05:30:36;9.63;;;6.90;;
15699;SDS011;7950;42.744;23.174;2023-07-16T05:33:05;7.97;;;7.10;;
15699;SDS011;7950;42.744;23.174;2023-07-16T05:35:33;9.13;;;6.83;;
15699;SDS011;7950;42.744;23.174;2023-07-16T05:38:02;9.50;;;8.50;;
15699;SDS011;7950;42.744;23.174;2023-07-16T05:40:30;12.47;;;7.60;;
15699;SDS011;7950;42.744;23.174;2023-07-16T05:42:59;10.23;;;8.00;;
15699;SDS011;7950;42.744;23.174;2023-07-16T05:45:29;9.03;;;8.13;;
15699;SDS011;7950;42.744;23.174;2023-07-16T05:47:57;11.00;;;7.87;;
15699;SDS011;7950;42.744;23.174;2023-07-16T05:50:26;7.17;;;6.33;;
15699;SDS011;7950;42.744;23.174;2023-07-16T05:52:55;8.03;;;6.30;;
15699;SDS011;7950;42.744;23.174;2023-07-16T05:55:23;6.97;;;6.27;;
15699;SDS011;7950;42.744;23.174;2023-07-16T05:57:52;8.97;;;6.70;;
15699;SDS011;7950;42.744;23.174;2023-07-16T06:00:21;8.47;;;6.17;;
15699;SDS011;7950;42.744;23.174;2023-07-16T06:02:51;8.33;;;6.43;;
15699;SDS011;7950;42.744;23.174;2023-07-16T06:05:20;7.40;;;6.10;;
15699;SDS011;7950;42.744;23.174;2023-07-16T06:07:51;7.93;;;6.37;;
15699;SDS011;7950;42.744;23.174;2023-07-16T06:10:19;7.07;;;6.37;;
15699;SDS011;7950;42.744;23.174;2023-07-16T06:12:48;7.93;;;6.70;;
15699;SDS011;7950;42.744;23.174;2023-07-16T06:15:16;7.70;;;6.03;;
15699;SDS011;7950;42.744;23.174;2023-07-16T06:17:45;8.70;;;6.37;;
15699;SDS011;7950;42.744;23.174;2023-07-16T06:20:15;8.90;;;5.67;;
15699;SDS011;7950;42.744;23.174;2023-07-16T06:22:44;7.33;;;6.33;;
15699;SDS011;7950;42.744;23.174;2023-07-16T06:25:12;8.00;;;5.87;;
15699;SDS011;7950;42.744;23.174;2023-07-16T06:27:41;7.78;;;6.35;;
15699;SDS011;7950;42.744;23.174;2023-07-16T06:30:09;6.70;;;6.10;;
15699;SDS011;7950;42.744;23.174;2023-07-16T06:32:38;8.40;;;6.30;;
15699;SDS011;7950;42.744;23.174;2023-07-16T06:35:07;7.77;;;5.63;;
15699;SDS011;7950;42.744;23.174;2023-07-16T06:37:38;8.60;;;6.80;;
15699;SDS011;7950;42.744;23.174;2023-07-16T06:40:06;6.83;;;6.07;;
15699;SDS011;7950;42.744;23.174;2023-07-16T06:42:36;9.67;;;6.50;;
15699;SDS011;7950;42.744;23.174;2023-07-16T06:45:05;7.70;;;6.13;;
15699;SDS011;7950;42.744;23.174;2023-07-16T06:47:35;9.83;;;5.60;;
15699;SDS011;7950;42.744;23.174;2023-07-16T06:50:04;6.33;;;5.57;;
15699;SDS011;7950;42.744;23.174;2023-07-16T06:52:34;11.77;;;6.40;;
15699;SDS011;7950;42.744;23.174;2023-07-16T06:55:04;12.75;;;6.43;;
15699;SDS011;7950;42.744;23.174;2023-07-16T06:57:33;8.25;;;5.60;;
15699;SDS011;7950;42.744;23.174;2023-07-16T07:00:02;17.65;;;6.50;;
15699;SDS011;7950;42.744;23.174;2023-07-16T07:02:32;8.97;;;5.53;;
15699;SDS011;7950;42.744;23.174;2023-07-16T07:05:01;6.78;;;5.97;;
15699;SDS011;7950;42.744;23.174;2023-07-16T07:07:30;9.30;;;5.80;;
15699;SDS011;7950;42.744;23.174;2023-07-16T07:09:59;7.45;;;5.82;;
15699;SDS011;7950;42.744;23.174;2023-07-16T07:12:29;6.57;;;5.97;;
15699;SDS011;7950;42.744;23.174;2023-07-16T07:15:03;6.68;;;5.97;;
15699;SDS011;7950;42.744;23.174;2023-07-16T07:17:34;7.38;;;5.82;;
15699;SDS011;7950;42.744;23.174;2023-07-16T07:20:02;8.20;;;5.80;;
15699;SDS011;7950;42.744;23.174;2023-07-16T07:22:33;8.40;;;5.85;;
15699;SDS011;7950;42.744;23.174;2023-07-16T07:25:02;10.80;;;6.50;;
15699;SDS011;7950;42.744;23.174;2023-07-16T07:27:32;8.80;;;6.60;;
15699;SDS011;7950;42.744;23.174;2023-07-16T07:30:01;7.28;;;6.45;;
15699;SDS011;7950;42.744;23.174;2023-07-16T07:32:30;7.82;;;6.50;;
15699;SDS011;7950;42.744;23.174;2023-07-16T07:34:58;9.23;;;6.10;;
15699;SDS011;7950;42.744;23.174;2023-07-16T07:37:29;11.55;;;6.57;;
15699;SDS011;7950;42.744;23.174;2023-07-16T07:39:58;8.50;;;6.32;;
15699;SDS011;7950;42.744;23.174;2023-07-16T07:42:27;7.80;;;6.07;;
15699;SDS011;7950;42.744;23.174;2023-07-16T07:44:58;6.50;;;5.82;;
15699;SDS011;7950;42.744;23.174;2023-07-16T07:47:27;6.35;;;5.55;;
15699;SDS011;7950;42.744;23.174;2023-07-16T07:49:55;7.40;;;6.70;;
15699;SDS011;7950;42.744;23.174;2023-07-16T07:52:24;7.45;;;6.72;;
15699;SDS011;7950;42.744;23.174;2023-07-16T07:54:54;10.35;;;6.80;;
15699;SDS011;7950;42.744;23.174;2023-07-16T07:57:23;9.65;;;6.32;;
15699;SDS011;7950;42.744;23.174;2023-07-16T07:59:51;8.98;;;6.30;;
15699;SDS011;7950;42.744;23.174;2023-07-16T08:02:25;10.30;;;6.78;;
15699;SDS011;7950;42.744;23.174;2023-07-16T08:04:54;9.15;;;6.35;;
15699;SDS011;7950;42.744;23.174;2023-07-16T08:07:23;13.90;;;7.93;;
15699;SDS011;7950;42.744;23.174;2023-07-16T08:09:52;9.60;;;7.05;;
15699;SDS011;7950;42.744;23.174;2023-07-16T08:12:20;7.88;;;7.00;;
15699;SDS011;7950;42.744;23.174;2023-07-16T08:14:49;10.65;;;7.00;;
15699;SDS011;7950;42.744;23.174;2023-07-16T08:17:17;8.70;;;6.88;;
15699;SDS011;7950;42.744;23.174;2023-07-16T08:19:51;8.88;;;7.88;;
15699;SDS011;7950;42.744;23.174;2023-07-16T08:22:19;10.25;;;8.30;;
15699;SDS011;7950;42.744;23.174;2023-07-16T08:24:48;11.05;;;8.10;;
15699;SDS011;7950;42.744;23.174;2023-07-16T08:27:18;8.60;;;7.72;;
15699;SDS011;7950;42.744;23.174;2023-07-16T08:29:47;9.13;;;8.23;;
15699;SDS011;7950;42.744;23.174;2023-07-16T08:32:15;12.60;;;8.23;;
15699;SDS011;7950;42.744;23.174;2023-07-16T08:34:44;12.18;;;9.75;;
15699;SDS011;7950;42.744;23.174;2023-07-16T08:37:13;11.50;;;8.48;;
15699;SDS011;7950;42.744;23.174;2023-07-16T08:39:42;10.68;;;9.57;;
15699;SDS011;7950;42.744;23.174;2023-07-16T08:42:11;12.77;;;9.50;;
15699;SDS011;7950;42.744;23.174;2023-07-16T08:44:40;11.55;;;10.18;;
15699;SDS011;7950;42.744;23.174;2023-07-16T08:47:09;14.23;;;10.20;;
15699;SDS011;7950;42.744;23.174;2023-07-16T08:49:38;11.23;;;9.75;;
15699;SDS011;7950;42.744;23.174;2023-07-16T08:52:08;12.18;;;9.70;;
15699;SDS011;7950;42.744;23.174;2023-07-16T08:54:39;9.70;;;8.80;;
15699;SDS011;7950;42.744;23.174;2023-07-16T08:57:08;11.38;;;9.00;;
15699;SDS011;7950;42.744;23.174;2023-07-16T08:59:37;11.30;;;9.02;;
15699;SDS011;7950;42.744;23.174;2023-07-16T09:02:06;12.35;;;9.50;;
15699;SDS011;7950;42.744;23.174;2023-07-16T09:04:35;12.50;;;9.25;;
15699;SDS011;7950;42.744;23.174;2023-07-16T09:07:04;14.18;;;9.40;;
15699;SDS011;7950;42.744;23.174;2023-07-16T09:09:33;15.65;;;9.70;;
15699;SDS011;7950;42.744;23.174;2023-07-16T09:12:03;10.98;;;9.88;;
15699;SDS011;7950;42.744;23.174;2023-07-16T09:14:33;16.23;;;9.68;;
15699;SDS011;7950;42.744;23.174;2023-07-16T09:17:01;15.63;;;10.85;;
15699;SDS011;7950;42.744;23.174;2023-07-16T09:19:31;14.70;;;9.38;;
15699;SDS011;7950;42.744;23.174;2023-07-16T09:22:00;20.55;;;9.07;;
15699;SDS011;7950;42.744;23.174;2023-07-16T09:24:29;10.50;;;7.78;;
15699;SDS011;7950;42.744;23.174;2023-07-16T09:26:58;13.65;;;9.13;;
15699;SDS011;7950;42.744;23.174;2023-07-16T09:29:30;12.10;;;8.75;;
15699;SDS011;7950;42.744;23.174;2023-07-16T09:31:59;13.75;;;9.65;;
15699;SDS011;7950;42.744;23.174;2023-07-16T09:34:29;11.55;;;8.70;;
15699;SDS011;7950;42.744;23.174;2023-07-16T09:36:59;10.40;;;9.32;;
15699;SDS011;7950;42.744;23.174;2023-07-16T09:39:29;11.60;;;9.32;;
15699;SDS011;7950;42.744;23.174;2023-07-16T09:41:59;12.30;;;9.40;;
15699;SDS011;7950;42.744;23.174;2023-07-16T09:44:31;10.73;;;9.63;;
15699;SDS011;7950;42.744;23.174;2023-07-16T09:47:01;11.70;;;9.57;;
15699;SDS011;7950;42.744;23.174;2023-07-16T09:49:30;10.23;;;9.23;;
15699;SDS011;7950;42.744;23.174;2023-07-16T09:51:58;13.32;;;9.85;;
15699;SDS011;7950;42.744;23.174;2023-07-16T09:54:31;17.15;;;10.02;;
15699;SDS011;7950;42.744;23.174;2023-07-16T09:57:02;12.70;;;9.55;;
15699;SDS011;7950;42.744;23.174;2023-07-16T09:59:35;12.13;;;9.35;;
15699;SDS011;7950;42.744;23.174;2023-07-16T10:02:04;11.10;;;9.63;;
15699;SDS011;7950;42.744;23.174;2023-07-16T10:04:38;11.20;;;9.75;;
15699;SDS011;7950;42.744;23.174;2023-07-16T10:07:17;12.93;;;9.57;;
15699;SDS011;7950;42.744;23.174;2023-07-16T10:09:52;12.05;;;9.05;;
15699;SDS011;7950;42.744;23.174;2023-07-16T10:12:23;11.07;;;9.13;;
15699;SDS011;7950;42.744;23.174;2023-07-16T10:14:56;10.73;;;8.90;;
15699;SDS011;7950;42.744;23.174;2023-07-16T10:17:25;13.52;;;10.23;;
15699;SDS011;7950;42.744;23.174;2023-07-16T10:19:55;11.55;;;8.95;;
15699;SDS011;7950;42.744;23.174;2023-07-16T10:22:33;14.40;;;9.52;;
15699;SDS011;7950;42.744;23.174;2023-07-16T10:25:05;11.40;;;9.45;;
15699;SDS011;7950;42.744;23.174;2023-07-16T10:27:38;11.20;;;10.02;;
15699;SDS011;7950;42.744;23.174;2023-07-16T10:30:08;12.07;;;9.88;;
15699;SDS011;7950;42.744;23.174;2023-07-16T10:32:37;11.52;;;9.48;;
15699;SDS011;7950;42.744;23.174;2023-07-16T10:35:06;10.60;;;9.50;;
15699;SDS011;7950;42.744;23.174;2023-07-16T10:37:37;11.85;;;9.30;;
15699;SDS011;7950;42.744;23.174;2023-07-16T10:40:09;11.98;;;9.02;;
15699;SDS011;7950;42.744;23.174;2023-07-16T10:42:40;10.45;;;9.13;;
15699;SDS011;7950;42.744;23.174;2023-07-16T10:45:11;14.45;;;9.55;;
15699;SDS011;7950;42.744;23.174;2023-07-16T10:47:50;12.63;;;9.07;;
15699;SDS011;7950;42.744;23.174;2023-07-16T10:50:21;10.30;;;9.15;;
15699;SDS011;7950;42.744;23.174;2023-07-16T10:52:50;13.23;;;9.93;;
15699;SDS011;7950;42.744;23.174;2023-07-16T10:55:20;12.82;;;9.82;;
15699;SDS011;7950;42.744;23.174;2023-07-16T10:57:50;12.40;;;9.32;;
15699;SDS011;7950;42.744;23.174;2023-07-16T11:00:21;13.90;;;9.82;;
15699;SDS011;7950;42.744;23.174;2023-07-16T11:02:51;14.25;;;9.07;;
15699;SDS011;7950;42.744;23.174;2023-07-16T11:05:20;16.52;;;9.73;;
15699;SDS011;7950;42.744;23.174;2023-07-16T11:07:49;15.02;;;9.45;;
15699;SDS011;7950;42.744;23.174;2023-07-16T11:10:21;12.77;;;9.18;;
15699;SDS011;7950;42.744;23.174;2023-07-16T11:12:51;13.18;;;9.05;;
15699;SDS011;7950;42.744;23.174;2023-07-16T11:15:30;15.85;;;9.05;;
15699;SDS011;7950;42.744;23.174;2023-07-16T11:18:01;14.90;;;9.25;;
15699;SDS011;7950;42.744;23.174;2023-07-16T11:20:30;16.92;;;9.73;;
15699;SDS011;7950;42.744;23.174;2023-07-16T11:22:59;11.52;;;9.45;;
15699;SDS011;7950;42.744;23.174;2023-07-16T11:25:28;10.45;;;8.82;;
15699;SDS011;7950;42.744;23.174;2023-07-16T11:27:57;14.38;;;9.27;;
15699;SDS011;7950;42.744;23.174;2023-07-16T11:30:25;11.50;;;9.13;;
15699;SDS011;7950;42.744;23.174;2023-07-16T11:32:57;12.52;;;8.82;;
15699;SDS011;7950;42.744;23.174;2023-07-16T11:35:26;12.18;;;8.80;;
15699;SDS011;7950;42.744;23.174;2023-07-16T11:37:55;11.90;;;9.63;;
15699;SDS011;7950;42.744;23.174;2023-07-16T11:40:24;13.68;;;9.27;;
15699;SDS011;7950;42.744;23.174;2023-07-16T11:42:52;11.35;;;8.90;;
15699;SDS011;7950;42.744;23.174;2023-07-16T11:45:22;12.55;;;8.57;;
15699;SDS011;7950;42.744;23.174;2023-07-16T11:47:53;12.73;;;9.10;;
15699;SDS011;7950;42.744;23.174;2023-07-16T11:50:24;12.45;;;9.07;;
15699;SDS011;7950;42.744;23.174;2023-07-16T11:52:54;12.40;;;8.60;;
15699;SDS011;7950;42.744;23.174;2023-07-16T11:55:24;11.10;;;8.75;;
15699;SDS011;7950;42.744;23.174;2023-07-16T11:57:52;13.55;;;8.70;;
15699;SDS011;7950;42.744;23.174;2023-07-16T12:00:23;9.25;;;8.30;;
15699;SDS011;7950;42.744;23.174;2023-07-16T12:02:52;9.55;;;8.65;;
15699;SDS011;7950;42.744;23.174;2023-07-16T12:05:21;12.02;;;8.20;;
15699;SDS011;7950;42.744;23.174;2023-07-16T12:08:12;12.50;;;8.68;;
15699;SDS011;7950;42.744;23.174;2023-07-16T12:10:41;9.00;;;8.10;;
15699;SDS011;7950;42.744;23.174;2023-07-16T12:13:10;11.32;;;7.85;;
15699;SDS011;7950;42.744;23.174;2023-07-16T12:15:38;10.02;;;7.88;;
15699;SDS011;7950;42.744;23.174;2023-07-16T12:18:07;8.98;;;7.30;;
15699;SDS011;7950;42.744;23.174;2023-07-16T12:20:37;9.07;;;7.90;;
15699;SDS011;7950;42.744;23.174;2023-07-16T12:23:06;25.90;;;7.93;;
15699;SDS011;7950;42.744;23.174;2023-07-16T12:25:35;8.57;;;7.20;;
15699;SDS011;7950;42.744;23.174;2023-07-16T12:28:04;9.75;;;7.35;;
15699;SDS011;7950;42.744;23.174;2023-07-16T12:30:32;12.30;;;8.40;;
15699;SDS011;7950;42.744;23.174;2023-07-16T12:33:01;12.63;;;8.52;;
15699;SDS011;7950;42.744;23.174;2023-07-16T12:35:30;14.02;;;8.18;;
15699;SDS011;7950;42.744;23.174;2023-07-16T12:38:00;8.95;;;8.00;;
15699;SDS011;7950;42.744;23.174;2023-07-16T12:40:29;12.23;;;7.85;;
15699;SDS011;7950;42.744;23.174;2023-07-16T12:42:59;9.25;;;7.80;;
15699;SDS011;7950;42.744;23.174;2023-07-16T12:45:27;11.75;;;7.95;;
15699;SDS011;7950;42.744;23.174;2023-07-16T12:47:56;10.30;;;7.50;;
15699;SDS011;7950;42.744;23.174;2023-07-16T12:50:25;10.13;;;7.93;;
15699;SDS011;7950;42.744;23.174;2023-07-16T12:52:55;9.13;;;7.28;;
15699;SDS011;7950;42.744;23.174;2023-07-16T12:55:25;8.93;;;7.43;;
15699;SDS011;7950;42.744;23.174;2023-07-16T12:57:53;9.98;;;7.80;;
15699;SDS011;7950;42.744;23.174;2023-07-16T13:00:22;10.30;;;7.97;;
15699;SDS011;7950;42.744;23.174;2023-07-16T13:02:51;11.35;;;7.93;;
15699;SDS011;7950;42.744;23.174;2023-07-16T13:05:20;11.95;;;7.25;;
15699;SDS011;7950;42.744;23.174;2023-07-16T13:07:49;8.23;;;7.30;;
15699;SDS011;7950;42.744;23.174;2023-07-16T13:10:18;10.60;;;7.25;;
15699;SDS011;7950;42.744;23.174;2023-07-16T13:12:50;11.15;;;7.50;;
15699;SDS011;7950;42.744;23.174;2023-07-16T13:15:19;8.90;;;7.75;;
15699;SDS011;7950;42.744;23.174;2023-07-16T13:17:48;9.00;;;8.07;;
15699;SDS011;7950;42.744;23.174;2023-07-16T13:20:17;8.52;;;7.63;;
15699;SDS011;7950;42.744;23.174;2023-07-16T13:22:46;10.10;;;7.57;;
15699;SDS011;7950;42.744;23.174;2023-07-16T13:25:15;9.02;;;7.45;;
15699;SDS011;7950;42.744;23.174;2023-07-16T13:27:44;14.10;;;7.57;;
15699;SDS011;7950;42.744;23.174;2023-07-16T13:30:14;10.45;;;7.70;;
15699;SDS011;7950;42.744;23.174;2023-07-16T13:32:43;9.73;;;7.82;;
15699;SDS011;7950;42.744;23.174;2023-07-16T13:35:12;8.43;;;7.53;;
15699;SDS011;7950;42.744;23.174;2023-07-16T13:37:41;8.90;;;7.70;;
15699;SDS011;7950;42.744;23.174;2023-07-16T13:40:10;9.07;;;8.07;;
15699;SDS011;7950;42.744;23.174;2023-07-16T13:42:39;10.25;;;7.80;;
15699;SDS011;7950;42.744;23.174;2023-07-16T13:45:08;11.68;;;7.88;;
15699;SDS011;7950;42.744;23.174;2023-07-16T13:47:38;11.63;;;7.78;;
15699;SDS011;7950;42.744;23.174;2023-07-16T13:50:07;10.52;;;7.88;;
15699;SDS011;7950;42.744;23.174;2023-07-16T13:52:37;17.13;;;8.90;;
15699;SDS011;7950;42.744;23.174;2023-07-16T13:55:06;9.05;;;7.53;;
15699;SDS011;7950;42.744;23.174;2023-07-16T13:57:34;10.07;;;8.02;;
15699;SDS011;7950;42.744;23.174;2023-07-16T14:00:03;9.30;;;7.30;;
15699;SDS011;7950;42.744;23.174;2023-07-16T14:02:36;9.95;;;7.32;;
15699;SDS011;7950;42.744;23.174;2023-07-16T14:05:07;12.02;;;7.38;;
15699;SDS011;7950;42.744;23.174;2023-07-16T14:07:35;10.52;;;7.45;;
15699;SDS011;7950;42.744;23.174;2023-07-16T14:10:04;8.70;;;7.85;;
15699;SDS011;7950;42.744;23.174;2023-07-16T14:12:34;9.48;;;7.82;;
15699;SDS011;7950;42.744;23.174;2023-07-16T14:15:03;12.95;;;8.07;;
15699;SDS011;7950;42.744;23.174;2023-07-16T14:17:33;9.82;;;7.80;;
15699;SDS011;7950;42.744;23.174;2023-07-16T14:20:03;9.80;;;7.93;;
15699;SDS011;7950;42.744;23.174;2023-07-16T14:22:33;10.27;;;8.65;;
15699;SDS011;7950;42.744;23.174;2023-07-16T14:25:02;9.07;;;7.57;;
15699;SDS011;7950;42.744;23.174;2023-07-16T14:27:31;10.40;;;8.30;;
15699;SDS011;7950;42.744;23.174;2023-07-16T14:29:59;12.05;;;8.00;;
15699;SDS011;7950;42.744;23.174;2023-07-16T14:32:32;8.60;;;7.72;;
15699;SDS011;7950;42.744;23.174;2023-07-16T14:35:03;9.93;;;7.63;;
15699;SDS011;7950;42.744;23.174;2023-07-16T14:37:47;8.43;;;7.35;;
15699;SDS011;7950;42.744;23.174;2023-07-16T14:40:15;11.00;;;8.00;;
15699;SDS011;7950;42.744;23.174;2023-07-16T14:42:45;9.73;;;7.75;;
15699;SDS011;7950;42.744;23.174;2023-07-16T14:45:13;11.30;;;8.07;;
15699;SDS011;7950;42.744;23.174;2023-07-16T14:47:42;9.88;;;8.32;;
15699;SDS011;7950;42.744;23.174;2023-07-16T14:50:12;8.38;;;7.57;;